Time;durP1;ratioP1;P1;durP2;ratioP2;P2;SDS_P1;SDS_P2;PMS_P1;PMS_P2;Temp;Humidity;BMP_temperature;BMP_pressure;BME280_temperature;BME280_humidity;BME280_pressure;Samples;Min_cycle;Max_cycle;Signal;HPM_P1;HPM_P2
2022/01/26 00:00:55;;;;;;;52.28;26.77;;;15.00;72.80;;;;;;4183458;28;20470;-62
2022/01/26 00:06:03;;;;;;;50.85;26.52;;;15.10;72.60;;;;;;4190474;28;20048;-62
2022/01/26 00:08:26;;;;;;;54.63;26.73;;;15.10;72.40;;;;;;4176697;28;20045;-62
2022/01/26 00:10:48;;;;;;;52.63;26.75;;;15.10;72.40;;;;;;4176383;28;20473;-62
2022/01/26 00:13:10;;;;;;;47.92;26.42;;;15.10;72.60;;;;;;4176605;28;20091;-61
2022/01/26 00:15:33;;;;;;;52.35;24.40;;;15.10;72.50;;;;;;4176369;28;20102;-62
2022/01/26 00:17:56;;;;;;;47.45;23.52;;;15.10;73.40;;;;;;4176563;28;20117;-62
2022/01/26 00:20:23;;;;;;;54.45;26.70;;;15.10;72.50;;;;;;4175756;28;20052;-61
2022/01/26 00:23:00;;;;;;;51.97;25.42;;;15.20;72.50;;;;;;4175602;28;20048;-62
2022/01/26 00:25:34;;;;;;;55.72;29.00;;;15.20;72.30;;;;;;4177350;28;20053;-62
2022/01/26 00:28:09;;;;;;;49.40;26.00;;;15.20;72.20;;;;;;4192622;28;20605;-63
2022/01/26 00:38:38;;;;;;;48.75;24.90;;;15.20;72.30;;;;;;4174749;28;20664;-61
2022/01/26 00:41:04;;;;;;;53.40;26.52;;;15.10;73.10;;;;;;4174858;28;20056;-61
2022/01/26 00:43:26;;;;;;;49.75;25.63;;;15.10;72.30;;;;;;4175632;28;20485;-63
2022/01/26 00:45:55;;;;;;;49.70;25.02;;;15.20;72.20;;;;;;4175681;28;20558;-64
2022/01/26 00:48:20;;;;;;;50.80;25.92;;;15.10;72.00;;;;;;4183366;28;20216;-62
2022/01/26 00:50:49;;;;;;;52.67;25.92;;;15.10;72.10;;;;;;4175621;28;20466;-63
2022/01/26 00:53:11;;;;;;;49.75;25.50;;;15.10;72.20;;;;;;4176087;28;20048;-63
2022/01/26 00:55:34;;;;;;;54.53;26.55;;;15.20;72.30;;;;;;4176159;28;20053;-64
2022/01/26 00:57:56;;;;;;;46.45;24.38;;;15.20;72.20;;;;;;4175840;28;20053;-62
2022/01/26 01:00:21;;;;;;;49.83;26.27;;;15.20;72.40;;;;;;4183138;28;20051;-62
2022/01/26 01:02:44;;;;;;;54.03;25.98;;;15.30;72.20;;;;;;4192013;28;20060;-62
2022/01/26 01:05:15;;;;;;;51.35;25.55;;;15.40;71.70;;;;;;4192614;28;20063;-62
2022/01/26 01:07:39;;;;;;;52.50;26.60;;;15.40;71.20;;;;;;4175412;28;20687;-62
2022/01/26 01:10:01;;;;;;;51.45;24.77;;;15.50;70.90;;;;;;4176082;28;20072;-62
2022/01/26 01:12:23;;;;;;;51.45;25.35;;;15.50;70.70;;;;;;4176318;28;20175;-62
2022/01/26 01:14:45;;;;;;;50.72;25.38;;;15.50;70.60;;;;;;4175866;28;20239;-62
2022/01/26 01:17:11;;;;;;;54.50;27.08;;;15.50;70.40;;;;;;4175753;28;20053;-62
2022/01/26 01:19:39;;;;;;;50.85;26.60;;;15.50;70.50;;;;;;4175591;28;20128;-61
2022/01/26 01:25:14;;;;;;;52.17;25.85;;;15.50;70.70;;;;;;4175613;28;20381;-62
2022/01/26 01:27:49;;;;;;;56.75;27.58;;;15.50;70.50;;;;;;4175358;28;20072;-61
2022/01/26 01:30:24;;;;;;;52.58;26.48;;;15.50;70.50;;;;;;4175682;28;20136;-61
2022/01/26 01:32:53;;;;;;;56.92;26.90;;;15.50;70.50;;;;;;4175566;28;20048;-62
2022/01/26 01:35:16;;;;;;;53.58;26.55;;;15.60;70.50;;;;;;4175965;28;20052;-61
2022/01/26 01:37:38;;;;;;;57.80;26.20;;;15.60;70.30;;;;;;4191275;28;20109;-61
2022/01/26 01:40:01;;;;;;;55.65;26.25;;;15.60;70.30;;;;;;4183174;28;20455;-61
2022/01/26 01:42:23;;;;;;;54.22;27.63;;;15.60;70.20;;;;;;4175753;28;20061;-62
2022/01/26 01:44:46;;;;;;;50.80;26.08;;;15.60;70.00;;;;;;4184030;28;20054;-61
2022/01/26 01:47:08;;;;;;;50.78;24.92;;;15.60;69.90;;;;;;4191706;28;20058;-62
2022/01/26 01:49:31;;;;;;;55.97;28.33;;;15.60;70.00;;;;;;4192364;28;20079;-62
2022/01/26 01:51:58;;;;;;;51.08;26.23;;;15.70;70.00;;;;;;4192203;28;20488;-61
2022/01/26 01:54:21;;;;;;;54.13;27.23;;;15.70;69.70;;;;;;4189427;28;20376;-62
2022/01/26 01:56:46;;;;;;;55.28;28.70;;;15.80;69.50;;;;;;4178399;28;20367;-62
2022/01/26 01:59:08;;;;;;;57.42;29.20;;;15.80;69.10;;;;;;4178971;28;20136;-61
2022/01/26 02:01:30;;;;;;;57.08;28.08;;;15.80;69.00;;;;;;4178786;28;20424;-62
2022/01/26 02:03:52;;;;;;;51.67;26.98;;;15.90;69.00;;;;;;4179845;28;20059;-61
2022/01/26 02:06:14;;;;;;;56.95;28.88;;;15.80;68.90;;;;;;4178595;28;20144;-61
2022/01/26 02:08:38;;;;;;;53.90;28.50;;;15.80;68.90;;;;;;4178837;28;20422;-62
2022/01/26 02:10:59;;;;;;;52.40;26.80;;;15.70;68.90;;;;;;4178298;28;20132;-61
2022/01/26 02:13:25;;;;;;;56.33;27.67;;;15.70;69.30;;;;;;4177797;28;20073;-61
2022/01/26 02:15:54;;;;;;;55.72;28.38;;;15.70;69.40;;;;;;4162036;28;20140;-61
2022/01/26 02:18:34;;;;;;;56.20;25.83;;;15.60;69.50;;;;;;4170907;28;20049;-61
2022/01/26 02:21:15;;;;;;;57.47;29.00;;;15.60;69.80;;;;;;4178089;28;20056;-62
2022/01/26 02:53:23;;;;;;;49.72;25.25;;;15.70;69.10;;;;;;4177785;28;20053;-61
2022/01/26 02:55:48;;;;;;;57.65;28.40;;;15.60;69.10;;;;;;4177407;28;20048;-62
2022/01/26 02:58:41;;;;;;;54.97;27.30;;;15.60;69.20;;;;;;4177731;28;20049;-62
2022/01/26 03:01:21;;;;;;;56.15;27.63;;;15.60;69.50;;;;;;4177688;28;20407;-61
2022/01/26 03:03:50;;;;;;;53.92;27.60;;;15.60;69.50;;;;;;4169176;28;20055;-61
2022/01/26 03:06:17;;;;;;;58.70;27.38;;;15.60;69.20;;;;;;4176685;28;20033;-61
2022/01/26 03:08:47;;;;;;;50.38;24.90;;;15.70;69.20;;;;;;4177700;28;20121;-61
2022/01/26 03:11:12;;;;;;;57.22;26.42;;;15.70;69.10;;;;;;4177566;28;20450;-62
2022/01/26 03:13:36;;;;;;;56.83;29.23;;;15.70;68.90;;;;;;4177786;28;20147;-61
2022/01/26 03:16:03;;;;;;;57.47;28.05;;;15.70;68.80;;;;;;4192984;28;21516;-63
2022/01/26 03:18:51;;;;;;;60.13;27.95;;;15.70;68.80;;;;;;4193591;28;20059;-64
2022/01/26 03:21:14;;;;;;;56.28;28.00;;;15.70;68.80;;;;;;4177570;28;20103;-63
2022/01/26 03:29:13;;;;;;;52.50;24.98;;;15.60;69.10;;;;;;4193648;28;20083;-63
2022/01/26 03:34:17;;;;;;;60.85;30.02;;;15.80;68.80;;;;;;4192338;28;20106;-63
2022/01/26 03:36:47;;;;;;;52.17;27.15;;;15.90;68.40;;;;;;4185227;28;20076;-64
2022/01/26 03:39:11;;;;;;;56.80;28.80;;;15.90;67.80;;;;;;4179565;28;20500;-62
2022/01/26 03:41:41;;;;;;;58.60;29.85;;;16.00;67.60;;;;;;4176756;28;20099;-63
2022/01/26 03:44:04;;;;;;;58.75;28.70;;;16.00;67.50;;;;;;4177056;28;20053;-63
2022/01/26 03:46:27;;;;;;;59.08;27.45;;;16.00;67.30;;;;;;4176673;28;20800;-63
2022/01/26 03:48:48;;;;;;;56.45;28.48;;;16.00;67.30;;;;;;4176514;28;20140;-63
2022/01/26 03:51:11;;;;;;;58.63;28.10;;;16.00;67.30;;;;;;4176702;28;20468;-63
2022/01/26 03:53:33;;;;;;;59.90;30.13;;;16.00;67.50;;;;;;4176624;28;20558;-63
2022/01/26 03:55:55;;;;;;;58.03;28.80;;;15.90;67.50;;;;;;4176645;28;20055;-63
2022/01/26 03:58:18;;;;;;;60.58;28.42;;;15.90;67.50;;;;;;4176560;28;20458;-63
2022/01/26 04:00:40;;;;;;;58.95;27.95;;;15.90;67.50;;;;;;4176750;28;20045;-64
2022/01/26 04:03:05;;;;;;;58.45;28.60;;;15.90;67.80;;;;;;4183908;28;20056;-64
2022/01/26 04:05:28;;;;;;;54.17;26.58;;;15.90;67.90;;;;;;4192971;28;20099;-63
2022/01/26 04:07:55;;;;;;;54.58;27.00;;;15.90;67.90;;;;;;4193203;28;20052;-63
2022/01/26 04:10:27;;;;;;;51.35;26.45;;;15.90;67.80;;;;;;4188791;28;20080;-63
2022/01/26 04:12:49;;;;;;;53.80;26.60;;;15.80;67.80;;;;;;4176463;28;20400;-63
2022/01/26 04:15:21;;;;;;;58.25;26.92;;;15.80;67.90;;;;;;4182872;28;20079;-63
2022/01/26 04:17:43;;;;;;;52.33;25.48;;;15.90;68.00;;;;;;4168002;28;20045;-63
2022/01/26 04:20:06;;;;;;;60.72;29.10;;;15.90;67.80;;;;;;4176666;28;20106;-62
2022/01/26 04:22:35;;;;;;;54.92;25.63;;;16.00;67.60;;;;;;4176333;28;20397;-63
2022/01/26 04:24:58;;;;;;;51.47;25.52;;;16.10;67.20;;;;;;4176509;28;20160;-63
2022/01/26 04:27:24;;;;;;;58.33;27.80;;;16.20;66.70;;;;;;4175999;28;20044;-63
2022/01/26 04:29:47;;;;;;;55.65;27.05;;;16.30;66.40;;;;;;4176349;28;20060;-62
2022/01/26 04:32:13;;;;;;;55.58;26.60;;;16.40;66.20;;;;;;4175461;28;20057;-62
2022/01/26 04:34:36;;;;;;;53.53;26.48;;;16.40;66.00;;;;;;4175240;28;20374;-62
2022/01/26 04:37:05;;;;;;;50.58;25.88;;;16.40;65.90;;;;;;4175698;28;20148;-63
2022/01/26 04:39:35;;;;;;;57.42;27.10;;;16.40;65.80;;;;;;4181018;28;20154;-63
2022/01/26 04:42:01;;;;;;;53.17;27.60;;;16.30;65.90;;;;;;4192541;28;20716;-63
2022/01/26 04:44:25;;;;;;;53.70;26.65;;;16.30;66.10;;;;;;4183146;28;20151;-63
2022/01/26 04:46:48;;;;;;;47.58;24.05;;;16.30;66.30;;;;;;4175894;28;20051;-63
2022/01/26 04:49:12;;;;;;;54.53;24.15;;;16.30;67.00;;;;;;4175864;28;20041;-63
2022/01/26 04:51:33;;;;;;;58.17;25.83;;;16.30;66.10;;;;;;4180765;28;20431;-63
2022/01/26 04:53:55;;;;;;;48.97;24.40;;;16.30;66.10;;;;;;4192639;28;20050;-63
2022/01/26 04:56:18;;;;;;;53.03;26.80;;;16.30;65.90;;;;;;4178628;28;20053;-63
2022/01/26 04:58:39;;;;;;;56.22;27.80;;;16.30;66.10;;;;;;4176260;28;20053;-62
2022/01/26 05:01:01;;;;;;;51.95;24.50;;;16.20;66.10;;;;;;4187709;28;20478;-62
2022/01/26 05:03:23;;;;;;;51.88;25.13;;;16.20;66.20;;;;;;4192468;28;20139;-63
2022/01/26 05:05:47;;;;;;;52.67;26.98;;;16.30;66.20;;;;;;4192055;28;20052;-62
2022/01/26 05:08:09;;;;;;;52.85;26.05;;;16.30;66.20;;;;;;4192177;28;20396;-62
2022/01/26 05:10:31;;;;;;;49.90;24.52;;;16.30;66.00;;;;;;4185553;28;20056;-62
2022/01/26 05:12:53;;;;;;;51.78;25.98;;;16.30;65.90;;;;;;4192318;28;20057;-62
2022/01/26 05:15:17;;;;;;;58.97;26.33;;;16.40;65.80;;;;;;4185069;28;20052;-62
2022/01/26 05:17:41;;;;;;;52.22;25.92;;;16.40;65.60;;;;;;4174093;28;20520;-62
2022/01/26 05:20:03;;;;;;;53.15;26.40;;;16.40;65.60;;;;;;4175713;28;20103;-62
2022/01/26 05:22:29;;;;;;;52.67;25.38;;;16.40;66.50;;;;;;4176327;28;20523;-62
2022/01/26 05:24:52;;;;;;;51.50;25.55;;;16.30;65.50;;;;;;4175286;28;20569;-62
2022/01/26 05:27:14;;;;;;;52.35;25.08;;;16.30;65.70;;;;;;4176862;28;20080;-62
2022/01/26 05:29:36;;;;;;;51.65;25.30;;;16.30;65.80;;;;;;4194451;28;20490;-62
2022/01/26 05:31:58;;;;;;;54.10;25.73;;;16.20;65.90;;;;;;4195397;28;20052;-62
2022/01/26 05:34:20;;;;;;;55.25;26.17;;;16.20;66.10;;;;;;4192750;28;20828;-62
2022/01/26 05:36:42;;;;;;;55.65;26.85;;;16.10;66.30;;;;;;4178966;28;20485;-62
2022/01/26 05:39:06;;;;;;;46.85;25.80;;;16.10;66.50;;;;;;4179177;28;20044;-62
2022/01/26 05:41:28;;;;;;;51.38;26.75;;;16.00;66.60;;;;;;4179291;28;20057;-62
2022/01/26 05:43:50;;;;;;;50.38;24.55;;;16.00;66.80;;;;;;4178801;28;20477;-62
2022/01/26 05:46:18;;;;;;;45.22;22.55;;;16.00;66.80;;;;;;4179010;28;20044;-62
2022/01/26 05:48:45;;;;;;;50.85;25.25;;;16.00;66.80;;;;;;4178458;28;20045;-62
2022/01/26 05:51:09;;;;;;;52.15;24.98;;;16.00;66.90;;;;;;4178623;28;20048;-62
2022/01/26 05:53:31;;;;;;;50.85;26.67;;;16.00;66.90;;;;;;4178429;28;20075;-62
2022/01/26 05:55:55;;;;;;;49.95;24.52;;;16.00;66.60;;;;;;4178449;28;20049;-62
2022/01/26 05:58:17;;;;;;;48.58;25.65;;;16.00;66.60;;;;;;4180518;28;20053;-62
2022/01/26 06:00:39;;;;;;;50.33;26.23;;;16.00;66.60;;;;;;4179531;28;20045;-62
2022/01/26 06:03:01;;;;;;;46.83;23.92;;;16.10;66.50;;;;;;4178579;28;20052;-62
2022/01/26 06:05:24;;;;;;;51.63;25.55;;;16.20;66.10;;;;;;4178528;28;20481;-62
2022/01/26 06:07:45;;;;;;;54.70;26.13;;;16.30;65.50;;;;;;4177360;28;20102;-62
2022/01/26 06:10:08;;;;;;;47.65;25.02;;;16.40;65.10;;;;;;4180773;28;20048;-63
2022/01/26 06:12:33;;;;;;;46.25;23.35;;;16.50;64.80;;;;;;4195067;28;20051;-62
2022/01/26 06:14:55;;;;;;;47.92;24.00;;;16.50;64.60;;;;;;4195201;28;20118;-62
2022/01/26 06:17:17;;;;;;;49.58;24.77;;;16.50;64.50;;;;;;4179721;28;20125;-62
2022/01/26 06:19:39;;;;;;;44.80;23.00;;;16.50;64.50;;;;;;4178191;28;20491;-62
2022/01/26 06:22:01;;;;;;;47.22;24.63;;;16.50;65.50;;;;;;4178574;28;20126;-62
2022/01/26 06:24:24;;;;;;;47.35;23.35;;;16.40;64.80;;;;;;4178459;28;22310;-62
2022/01/26 06:26:46;;;;;;;47.67;22.23;;;16.40;64.90;;;;;;4178656;28;20401;-63
2022/01/26 06:29:10;;;;;;;43.15;23.30;;;16.30;65.10;;;;;;4178176;28;20049;-62
2022/01/26 06:31:34;;;;;;;43.88;23.55;;;16.30;65.20;;;;;;4178407;28;20132;-62
2022/01/26 06:33:57;;;;;;;51.25;26.15;;;16.30;65.10;;;;;;4178581;28;20072;-62
2022/01/26 06:36:20;;;;;;;48.40;24.77;;;16.40;65.10;;;;;;4178001;28;20052;-63
2022/01/26 06:38:43;;;;;;;45.95;22.83;;;16.40;65.00;;;;;;4178223;28;20048;-63
2022/01/26 06:41:06;;;;;;;46.65;23.35;;;16.40;65.00;;;;;;4178105;28;20045;-63
2022/01/26 06:43:31;;;;;;;46.92;24.10;;;16.40;65.00;;;;;;4178213;28;20080;-63
2022/01/26 06:45:59;;;;;;;46.15;23.50;;;16.40;64.70;;;;;;4178264;28;20076;-63
2022/01/26 06:48:43;;;;;;;47.30;23.30;;;16.50;65.50;;;;;;4177605;28;20040;-63
2022/01/26 06:51:05;;;;;;;48.08;24.20;;;16.50;64.50;;;;;;4177701;28;20393;-63
2022/01/26 06:53:27;;;;;;;50.85;23.83;;;16.50;64.30;;;;;;4177697;28;20545;-63
2022/01/26 06:55:49;;;;;;;47.95;24.20;;;16.60;64.00;;;;;;4178004;28;20045;-63
2022/01/26 06:58:11;;;;;;;45.47;23.55;;;16.70;63.90;;;;;;4178755;28;20049;-63
2022/01/26 07:00:34;;;;;;;48.10;24.65;;;16.70;63.50;;;;;;4194016;28;20477;-63
2022/01/26 07:02:57;;;;;;;47.72;24.15;;;16.80;63.20;;;;;;4194410;28;20060;-64
2022/01/26 07:05:19;;;;;;;44.30;21.95;;;16.80;63.10;;;;;;4194155;28;20067;-63
2022/01/26 07:07:42;;;;;;;51.30;23.40;;;16.70;63.10;;;;;;4180960;28;20056;-63
2022/01/26 07:10:06;;;;;;;41.90;23.13;;;16.70;63.60;;;;;;4177590;28;20049;-62
2022/01/26 07:12:28;;;;;;;52.50;24.63;;;16.70;63.90;;;;;;4161329;28;20129;-62
2022/01/26 07:23:01;;;;;;;41.03;22.33;;;16.40;64.80;;;;;;4177901;28;20068;-63
2022/01/26 07:25:23;;;;;;;49.70;24.42;;;16.30;65.10;;;;;;4177521;28;20064;-61
2022/01/26 07:27:46;;;;;;;49.90;25.55;;;16.20;65.30;;;;;;4177552;28;20049;-63
2022/01/26 07:30:09;;;;;;;48.88;23.90;;;16.20;65.60;;;;;;4176978;28;20526;-63
2022/01/26 07:32:31;;;;;;;46.90;24.60;;;16.10;65.80;;;;;;4177552;28;20523;-63
2022/01/26 07:34:53;;;;;;;49.70;24.10;;;16.10;65.90;;;;;;4183855;28;20106;-63
2022/01/26 07:37:17;;;;;;;48.50;23.90;;;16.10;65.70;;;;;;4193438;28;20407;-62
2022/01/26 07:39:45;;;;;;;48.58;26.05;;;16.10;65.80;;;;;;4193685;28;20048;-62
2022/01/26 07:42:07;;;;;;;49.15;25.27;;;16.10;66.10;;;;;;4189956;28;20102;-63
2022/01/26 07:44:29;;;;;;;46.53;23.15;;;16.20;66.10;;;;;;4179579;28;20063;-62
2022/01/26 07:46:51;;;;;;;49.38;24.52;;;16.20;65.90;;;;;;4182839;28;20477;-62
2022/01/26 07:49:13;;;;;;;50.60;25.83;;;16.30;65.80;;;;;;4176841;28;20049;-62
2022/01/26 07:51:35;;;;;;;50.03;25.58;;;16.30;65.60;;;;;;4176728;28;20041;-63
2022/01/26 07:53:58;;;;;;;48.58;22.85;;;16.30;65.50;;;;;;4176853;28;20461;-63
2022/01/26 07:56:20;;;;;;;51.85;25.88;;;16.30;65.50;;;;;;4177108;28;20049;-64
2022/01/26 07:58:43;;;;;;;46.08;23.63;;;16.30;65.50;;;;;;4186122;28;20393;-65
2022/01/26 08:01:05;;;;;;;55.67;25.60;;;16.40;65.70;;;;;;4170317;28;20048;-64
2022/01/26 08:03:32;;;;;;;56.47;28.67;;;16.40;65.40;;;;;;4176689;28;20139;-64
2022/01/26 08:05:55;;;;;;;56.25;28.25;;;16.40;65.10;;;;;;4175937;28;20503;-63
2022/01/26 08:08:17;;;;;;;53.13;27.17;;;16.40;64.30;;;;;;4176236;28;20049;-64
2022/01/26 08:10:41;;;;;;;52.88;27.58;;;16.40;63.00;;;;;;4190911;28;20053;-64
2022/01/26 08:13:02;;;;;;;57.00;28.25;;;16.50;61.50;;;;;;4192828;28;20052;-65
2022/01/26 08:15:25;;;;;;;54.22;26.95;;;16.50;60.20;;;;;;4193210;28;20106;-65
2022/01/26 08:17:48;;;;;;;51.78;25.80;;;16.40;59.30;;;;;;4174432;28;20049;-63
2022/01/26 08:20:10;;;;;;;57.17;28.98;;;16.30;58.80;;;;;;4176516;28;20439;-64
2022/01/26 08:22:33;;;;;;;53.20;27.10;;;16.20;58.50;;;;;;4176440;28;20056;-64
2022/01/26 08:24:55;;;;;;;55.97;27.63;;;16.20;58.70;;;;;;4174804;28;20187;-66
2022/01/26 08:27:21;;;;;;;55.63;27.92;;;16.10;58.90;;;;;;4176386;28;20045;-65
2022/01/26 08:29:46;;;;;;;63.97;29.50;;;16.00;58.80;;;;;;4176326;28;20055;-64
2022/01/26 08:32:09;;;;;;;57.67;27.27;;;16.00;58.80;;;;;;4175251;28;20477;-64
2022/01/26 08:34:31;;;;;;;55.90;28.63;;;16.00;58.50;;;;;;4176585;28;20060;-64
2022/01/26 08:36:53;;;;;;;61.50;30.40;;;16.10;58.40;;;;;;4174805;28;20415;-64
2022/01/26 08:39:15;;;;;;;58.00;29.98;;;16.10;58.10;;;;;;4173208;28;20044;-66
2022/01/26 08:41:38;;;;;;;62.40;28.65;;;16.20;58.30;;;;;;4173766;28;20147;-64
2022/01/26 08:44:01;;;;;;;59.33;29.88;;;16.20;58.10;;;;;;4173684;28;20440;-66
2022/01/26 08:46:23;;;;;;;65.03;32.22;;;16.20;58.10;;;;;;4173450;28;20052;-65
2022/01/26 08:48:46;;;;;;;55.97;27.55;;;16.20;58.00;;;;;;4173211;28;20401;-66
2022/01/26 08:51:08;;;;;;;55.55;27.60;;;16.20;57.90;;;;;;4173193;28;20489;-65
2022/01/26 08:53:30;;;;;;;64.13;33.00;;;16.20;57.90;;;;;;4172829;28;20055;-64
2022/01/26 08:55:52;;;;;;;61.78;34.05;;;16.20;57.60;;;;;;4172980;28;20057;-64
2022/01/26 08:58:16;;;;;;;62.40;32.97;;;16.10;57.60;;;;;;4173089;28;20052;-65
2022/01/26 09:00:39;;;;;;;69.15;33.92;;;16.10;57.70;;;;;;4173279;28;20068;-65
2022/01/26 09:03:08;;;;;;;65.95;33.30;;;16.00;57.80;;;;;;4173045;28;20060;-65
2022/01/26 09:05:31;;;;;;;66.53;33.88;;;15.90;57.90;;;;;;4176533;28;20392;-65
2022/01/26 09:07:56;;;;;;;61.85;31.95;;;15.80;57.90;;;;;;4176473;28;20127;-64
2022/01/26 09:10:19;;;;;;;67.38;34.97;;;15.80;58.20;;;;;;4176505;28;20544;-66
2022/01/26 09:12:44;;;;;;;63.30;32.47;;;15.70;58.20;;;;;;4176566;28;20045;-66
2022/01/26 09:15:07;;;;;;;68.28;33.30;;;15.70;58.20;;;;;;4176430;28;20049;-63
2022/01/26 09:17:32;;;;;;;66.55;32.60;;;15.60;58.30;;;;;;4177320;28;20052;-63
2022/01/26 09:19:58;;;;;;;63.20;33.75;;;15.60;58.40;;;;;;4175740;28;20116;-63
2022/01/26 09:22:20;;;;;;;66.82;34.10;;;15.50;58.30;;;;;;4176715;28;20160;-63
2022/01/26 09:24:44;;;;;;;66.53;32.40;;;15.60;58.30;;;;;;4176560;28;20106;-65
2022/01/26 09:27:08;;;;;;;69.05;35.22;;;15.60;58.40;;;;;;4175321;28;20443;-64
2022/01/26 09:29:31;;;;;;;66.80;34.15;;;15.60;58.20;;;;;;4176720;28;20044;-63
2022/01/26 09:31:53;;;;;;;67.45;34.13;;;15.60;58.90;;;;;;4177072;28;20102;-63
2022/01/26 09:34:18;;;;;;;62.25;31.85;;;15.60;58.00;;;;;;4176187;28;20110;-63
2022/01/26 09:36:40;;;;;;;65.10;33.45;;;15.50;57.90;;;;;;4176573;28;20053;-62
2022/01/26 09:39:02;;;;;;;64.05;34.03;;;15.50;58.00;;;;;;4176350;28;20053;-63
2022/01/26 09:41:25;;;;;;;66.40;31.77;;;15.40;57.90;;;;;;4176416;28;20426;-63
2022/01/26 09:43:47;;;;;;;69.35;32.78;;;15.30;58.10;;;;;;4176017;28;20055;-63
2022/01/26 09:46:11;;;;;;;65.18;35.10;;;15.20;58.40;;;;;;4176831;28;20471;-64
2022/01/26 09:48:35;;;;;;;61.20;32.20;;;15.20;58.70;;;;;;4176230;28;20140;-63
2022/01/26 09:50:58;;;;;;;65.10;30.08;;;15.20;58.80;;;;;;4175676;28;20741;-65
2022/01/26 09:53:26;;;;;;;63.90;28.10;;;15.30;58.70;;;;;;4176487;28;20465;-65
2022/01/26 09:55:48;;;;;;;62.28;28.45;;;15.30;58.60;;;;;;4175821;28;20478;-65
2022/01/26 09:58:11;;;;;;;35.50;16.75;;;15.30;58.70;;;;;;4176240;28;20053;-65
2022/01/26 10:00:33;;;;;;;63.00;31.27;;;15.30;58.50;;;;;;4176375;28;20121;-65
2022/01/26 10:03:00;;;;;;;64.57;29.85;;;15.30;58.30;;;;;;4176080;28;20099;-65
2022/01/26 10:05:22;;;;;;;67.32;32.83;;;15.30;58.10;;;;;;4175241;28;20083;-62
2022/01/26 10:07:59;;;;;;;62.13;33.67;;;15.30;58.80;;;;;;4175270;28;20048;-62
2022/01/26 10:15:26;;;;;;;61.65;31.02;;;15.30;58.20;;;;;;4175154;28;20051;-62
2022/01/26 10:16:12;;;;;;;63.85;31.70;;;15.40;58.80;;;;;;4174967;28;20056;-62
2022/01/26 10:18:34;;;;;;;65.93;30.27;;;15.60;58.90;;;;;;4175889;28;20053;-62
2022/01/26 10:20:58;;;;;;;65.03;31.08;;;15.70;58.80;;;;;;4174940;28;20524;-62
2022/01/26 10:23:24;;;;;;;62.95;32.95;;;15.80;58.70;;;;;;4175739;28;20386;-61
2022/01/26 10:25:48;;;;;;;66.53;32.25;;;15.80;59.40;;;;;;4175579;28;20057;-62
2022/01/26 10:28:11;;;;;;;66.80;29.40;;;15.90;58.80;;;;;;4175994;28;20214;-62
2022/01/26 10:30:34;;;;;;;67.72;31.48;;;15.90;58.90;;;;;;4175825;28;20102;-62
2022/01/26 10:32:56;;;;;;;61.13;29.85;;;15.90;58.90;;;;;;4175726;28;20055;-61
2022/01/26 10:35:18;;;;;;;60.25;32.72;;;15.90;58.90;;;;;;4187875;28;20481;-62
2022/01/26 10:37:48;;;;;;;59.25;29.80;;;15.80;59.00;;;;;;4175359;28;20060;-63
2022/01/26 10:40:18;;;;;;;62.40;31.17;;;15.80;59.10;;;;;;4174989;28;20067;-62
2022/01/26 10:42:40;;;;;;;58.50;30.83;;;15.80;59.30;;;;;;4175304;28;20068;-61
2022/01/26 10:45:09;;;;;;;69.50;30.55;;;15.80;59.30;;;;;;4175596;28;20048;-61
2022/01/26 10:47:36;;;;;;;68.15;33.78;;;15.80;59.40;;;;;;4174890;28;20057;-61
2022/01/26 10:50:18;;;;;;;69.47;30.27;;;15.80;59.30;;;;;;4175472;28;20056;-61
2022/01/26 10:52:40;;;;;;;62.67;29.73;;;15.80;59.10;;;;;;4174999;28;20075;-61
2022/01/26 10:55:04;;;;;;;55.47;27.42;;;15.80;58.70;;;;;;4175129;28;20049;-61
2022/01/26 10:57:28;;;;;;;62.50;30.67;;;15.80;58.60;;;;;;4174845;28;20057;-62
2022/01/26 10:59:51;;;;;;;59.13;31.00;;;15.80;58.50;;;;;;4174539;28;20544;-61
2022/01/26 11:02:19;;;;;;;61.40;30.77;;;15.80;58.30;;;;;;4174854;28;20412;-61
2022/01/26 11:04:43;;;;;;;57.35;30.85;;;15.80;58.10;;;;;;4175347;28;20048;-61
2022/01/26 11:07:09;;;;;;;52.17;24.48;;;15.80;57.90;;;;;;4175056;28;20052;-61
2022/01/26 11:09:33;;;;;;;55.97;24.02;;;15.80;57.80;;;;;;4174621;28;20501;-61
2022/01/26 11:12:03;;;;;;;53.95;24.73;;;15.90;57.80;;;;;;4175163;28;20073;-61
2022/01/26 11:14:27;;;;;;;55.67;28.02;;;15.90;57.70;;;;;;4174921;28;20440;-61
2022/01/26 11:16:51;;;;;;;61.00;28.65;;;15.80;57.60;;;;;;4172589;28;20053;-61
2022/01/26 11:19:15;;;;;;;55.20;27.30;;;15.80;57.80;;;;;;4174029;28;20053;-61
2022/01/26 11:21:39;;;;;;;54.95;27.42;;;15.80;57.80;;;;;;4175262;28;20422;-61
2022/01/26 11:24:09;;;;;;;49.88;23.70;;;15.80;57.70;;;;;;4174481;28;20040;-62
2022/01/26 11:26:31;;;;;;;57.15;28.63;;;15.80;57.70;;;;;;4173602;28;20056;-61
2022/01/26 11:28:53;;;;;;;51.83;24.65;;;15.90;57.70;;;;;;4174582;28;20135;-61
2022/01/26 11:31:18;;;;;;;53.90;26.42;;;15.80;57.50;;;;;;4174609;28;20139;-61
2022/01/26 11:33:52;;;;;;;55.20;25.50;;;15.80;57.50;;;;;;4174578;28;20468;-61
2022/01/26 11:36:17;;;;;;;49.75;26.05;;;15.80;57.60;;;;;;4174657;28;20448;-61
2022/01/26 11:42:13;;;;;;;53.47;24.23;;;15.70;57.70;;;;;;4174885;28;20135;-61
2022/01/26 11:42:17;;;;;;;49.17;25.55;;;15.70;57.70;;;;;;4173529;28;20083;-61
2022/01/26 11:47:22;;;;;;;51.13;24.98;;;15.60;58.50;;;;;;4174197;28;20392;-61
2022/01/26 11:49:45;;;;;;;49.35;25.25;;;15.50;57.80;;;;;;4174131;28;20048;-61
2022/01/26 11:52:21;;;;;;;46.65;25.50;;;15.50;57.90;;;;;;4174082;28;20083;-61
2022/01/26 11:54:50;;;;;;;50.63;23.42;;;15.50;58.10;;;;;;4174266;28;20049;-61
2022/01/26 11:57:15;;;;;;;53.63;26.33;;;15.50;58.20;;;;;;4173708;28;20051;-62
2022/01/26 11:59:43;;;;;;;48.97;26.35;;;15.50;58.10;;;;;;4173835;28;20080;-61
2022/01/26 12:02:27;;;;;;;52.88;26.20;;;15.50;57.90;;;;;;4174057;28;20114;-61
2022/01/26 12:04:58;;;;;;;49.70;24.30;;;15.60;57.80;;;;;;4173534;28;20432;-62
2022/01/26 12:07:23;;;;;;;48.85;20.23;;;15.60;58.00;;;;;;4173576;28;20049;-61
2022/01/26 12:09:45;;;;;;;46.25;25.02;;;15.60;58.10;;;;;;4173705;28;20093;-61
2022/01/26 12:12:16;;;;;;;53.17;26.20;;;15.60;58.10;;;;;;4173448;28;20489;-62
2022/01/26 12:14:38;;;;;;;50.20;24.85;;;15.60;58.10;;;;;;4173280;28;20040;-61
2022/01/26 12:17:04;;;;;;;45.67;21.58;;;15.60;58.50;;;;;;4173138;28;20037;-61
2022/01/26 12:19:34;;;;;;;47.70;24.55;;;15.60;58.80;;;;;;4174248;28;20134;-61
2022/01/26 12:33:11;;;;;;;56.90;26.58;;;15.70;63.70;;;;;;4173432;28;20048;-60
2022/01/26 12:35:46;;;;;;;49.17;25.30;;;15.80;65.10;;;;;;4172261;28;20467;-59
2022/01/26 12:38:15;;;;;;;49.63;25.80;;;15.80;64.40;;;;;;4173170;28;20138;-60
2022/01/26 12:43:21;;;;;;;55.90;24.10;;;16.00;65.00;;;;;;4173500;28;20072;-60
2022/01/26 12:45:55;;;;;;;61.30;27.58;;;16.10;64.80;;;;;;4172911;28;20049;-60
2022/01/26 12:48:18;;;;;;;54.10;25.45;;;16.10;64.80;;;;;;4173247;28;20103;-60
2022/01/26 12:50:43;;;;;;;53.00;25.30;;;16.20;64.90;;;;;;4173573;28;20060;-60
2022/01/26 12:53:05;;;;;;;54.58;25.80;;;16.20;65.20;;;;;;4173258;28;20106;-61
2022/01/26 12:55:29;;;;;;;51.40;26.42;;;16.10;65.50;;;;;;4173708;28;20041;-60
2022/01/26 12:57:52;;;;;;;51.20;26.20;;;16.10;65.90;;;;;;4173649;28;20132;-60
2022/01/26 13:00:15;;;;;;;57.78;27.55;;;16.10;66.30;;;;;;4173438;28;20533;-60
2022/01/26 13:02:37;;;;;;;52.35;24.73;;;16.00;66.50;;;;;;4173730;28;20797;-60
2022/01/26 13:05:00;;;;;;;51.70;24.08;;;16.00;67.00;;;;;;4173219;28;20049;-60
2022/01/26 13:07:23;;;;;;;52.40;25.40;;;16.00;67.40;;;;;;4173906;28;20052;-60
2022/01/26 13:09:45;;;;;;;48.17;24.48;;;15.90;67.70;;;;;;4172873;28;20045;-60
2022/01/26 13:12:09;;;;;;;49.75;25.42;;;15.80;68.10;;;;;;4173527;28;20416;-60
2022/01/26 13:14:38;;;;;;;56.72;24.30;;;15.80;68.80;;;;;;4173650;28;20405;-60
2022/01/26 13:17:10;;;;;;;49.60;24.70;;;15.80;69.20;;;;;;4172854;28;20051;-60
2022/01/26 13:19:46;;;;;;;50.22;22.92;;;15.80;69.50;;;;;;4173222;28;20041;-61
2022/01/26 13:25:04;;;;;;;50.55;23.83;;;15.90;69.60;;;;;;4173873;28;20063;-60
2022/01/26 13:27:37;;;;;;;46.85;24.17;;;15.90;69.70;;;;;;4172778;28;20060;-60
2022/01/26 13:30:15;;;;;;;49.10;21.55;;;15.90;69.70;;;;;;4173042;28;20049;-60
2022/01/26 13:33:00;;;;;;;49.92;24.40;;;16.00;69.70;;;;;;4173463;28;20079;-60
2022/01/26 13:40:59;;;;;;;47.47;22.92;;;16.40;68.50;;;;;;4173338;28;20431;-60
2022/01/26 13:46:39;;;;;;;42.40;22.52;;;16.50;68.00;;;;;;4146703;28;20052;-60
2022/01/26 13:49:14;;;;;;;48.15;23.73;;;16.40;68.00;;;;;;4173013;28;20037;-60